createdAt,value
2023-03-13T00:00:52.135Z,8.98
2023-03-13T00:01:54.910Z,9.15
2023-03-13T00:02:56.653Z,6.70
2023-03-13T00:03:59.441Z,12.30
2023-03-13T00:05:01.201Z,8.05
2023-03-13T00:06:03.914Z,14.30
2023-03-13T00:07:08.225Z,13.20
2023-03-13T00:08:09.939Z,10.65
2023-03-13T00:09:15.071Z,10.70
2023-03-13T00:10:16.868Z,10.48
2023-03-13T00:11:19.553Z,6.50
2023-03-13T00:12:21.278Z,8.70
2023-03-13T00:13:24.257Z,15.32
2023-03-13T00:14:25.993Z,6.78
2023-03-13T00:15:28.619Z,6.68
2023-03-13T00:16:31.228Z,11.23
2023-03-13T00:17:34.390Z,8.32
2023-03-13T00:18:37.342Z,11.85
2023-03-13T00:19:40.102Z,8.80
2023-03-13T00:20:41.768Z,13.43
2023-03-13T00:21:44.482Z,8.82
2023-03-13T00:22:47.512Z,8.50
2023-03-13T00:23:50.627Z,8.82
2023-03-13T00:24:52.299Z,6.55
2023-03-13T00:25:57.960Z,11.65
2023-03-13T00:27:03.305Z,11.68
2023-03-13T00:28:05.438Z,7.35
2023-03-13T00:29:08.238Z,9.98
2023-03-13T00:30:11.119Z,7.78
2023-03-13T00:31:15.294Z,7.45
2023-03-13T00:32:17.088Z,12.32
2023-03-13T00:33:19.891Z,8.73
2023-03-13T00:34:22.746Z,7.07
2023-03-13T00:35:25.417Z,14.35
2023-03-13T00:36:28.996Z,5.90
2023-03-13T00:37:33.138Z,8.75
2023-03-13T00:38:36.600Z,10.43
2023-03-13T00:39:39.682Z,7.72
2023-03-13T00:40:41.394Z,8.55
2023-03-13T00:41:44.631Z,8.18
2023-03-13T00:42:46.293Z,8.02
2023-03-13T00:43:50.075Z,11.82
2023-03-13T00:44:51.779Z,9.07
2023-03-13T00:45:54.688Z,6.85
2023-03-13T00:46:56.498Z,10.48
2023-03-13T00:47:59.242Z,6.18
2023-03-13T00:49:00.937Z,8.35
2023-03-13T00:50:03.599Z,11.98
2023-03-13T00:51:06.427Z,7.78
2023-03-13T00:52:09.137Z,6.10
2023-03-13T00:53:10.852Z,10.32
2023-03-13T00:54:14.909Z,8.98
2023-03-13T00:55:16.817Z,7.75
2023-03-13T00:56:21.225Z,8.45
2023-03-13T00:57:22.951Z,10.23
2023-03-13T00:58:27.025Z,7.50
2023-03-13T00:59:29.794Z,14.60
2023-03-13T01:00:31.578Z,8.93
2023-03-13T01:01:36.236Z,11.73
2023-03-13T01:02:42.050Z,10.57
2023-03-13T01:03:46.388Z,8.43
2023-03-13T01:04:48.079Z,9.35
2023-03-13T01:05:57.130Z,14.43
2023-03-13T01:06:58.851Z,5.30
2023-03-13T01:08:01.567Z,11.75
2023-03-13T01:09:04.025Z,14.38
2023-03-13T01:10:09.321Z,14.70
2023-03-13T01:11:16.397Z,10.02
2023-03-13T01:12:19.080Z,10.27
2023-03-13T01:13:20.814Z,8.60
2023-03-13T01:14:23.495Z,12.52
2023-03-13T01:15:25.243Z,6.30
2023-03-13T01:16:29.759Z,9.60
2023-03-13T01:17:31.522Z,4.45
2023-03-13T01:18:34.852Z,8.95
2023-03-13T01:19:37.546Z,7.15
2023-03-13T01:20:40.922Z,10.55
2023-03-13T01:21:45.246Z,6.70
2023-03-13T01:22:46.907Z,12.38
2023-03-13T01:23:50.472Z,7.60
2023-03-13T01:24:53.907Z,8.45
2023-03-13T01:25:58.510Z,3.00
2023-03-13T01:27:00.192Z,9.95
2023-03-13T01:28:03.486Z,7.13
2023-03-13T01:29:06.321Z,10.40
2023-03-13T01:30:09.613Z,8.77
2023-03-13T01:31:13.835Z,15.50
2023-03-13T01:32:15.631Z,7.95
2023-03-13T01:33:18.449Z,7.03
2023-03-13T01:34:20.161Z,8.10
2023-03-13T01:35:22.950Z,6.40
2023-03-13T01:36:25.272Z,6.70
2023-03-13T01:37:27.937Z,9.85
2023-03-13T01:38:29.649Z,6.90
2023-03-13T01:39:32.343Z,8.82
2023-03-13T01:40:39.688Z,9.68
2023-03-13T01:41:43.738Z,7.50
2023-03-13T01:42:56.189Z,10.73
2023-03-13T01:44:00.146Z,11.57
2023-03-13T01:45:01.911Z,6.47
2023-03-13T01:46:10.537Z,11.05
2023-03-13T01:47:12.244Z,4.60
2023-03-13T01:48:14.967Z,9.40
2023-03-13T01:49:19.836Z,7.13
2023-03-13T01:50:21.584Z,6.63
2023-03-13T01:51:26.750Z,7.68
2023-03-13T01:52:31.133Z,13.55
2023-03-13T01:53:36.018Z,7.43
2023-03-13T01:54:40.478Z,7.43
2023-03-13T01:55:42.344Z,8.27
2023-03-13T01:56:49.299Z,7.45
2023-03-13T01:57:52.609Z,5.95
2023-03-13T01:58:57.005Z,7.78
2023-03-13T02:00:02.528Z,5.28
2023-03-13T02:01:05.431Z,12.10
2023-03-13T02:02:09.292Z,7.05
2023-03-13T02:03:13.059Z,9.98
2023-03-13T02:04:17.245Z,6.45
2023-03-13T02:05:20.880Z,7.32
2023-03-13T02:06:23.764Z,6.60
2023-03-13T02:07:28.610Z,6.88
2023-03-13T02:08:33.130Z,5.45
2023-03-13T02:09:35.883Z,7.68
2023-03-13T02:10:42.792Z,8.80
2023-03-13T02:11:50.933Z,3.67
2023-03-13T02:12:53.901Z,6.35
2023-03-13T02:13:57.431Z,7.63
2023-03-13T02:15:01.877Z,5.07
2023-03-13T02:16:05.013Z,7.35
2023-03-13T02:17:07.860Z,4.63
2023-03-13T02:18:11.101Z,8.68
2023-03-13T02:19:18.464Z,7.95
2023-03-13T02:20:22.815Z,5.90
2023-03-13T02:21:38.940Z,8.82
2023-03-13T02:22:45.881Z,5.40
2023-03-13T02:23:54.762Z,5.00
2023-03-13T02:25:00.670Z,9.90
2023-03-13T02:26:03.892Z,7.13
2023-03-13T02:27:06.639Z,5.60
2023-03-13T02:28:11.269Z,5.10
2023-03-13T02:29:18.308Z,6.35
2023-03-13T02:30:20.623Z,6.93
2023-03-13T02:31:23.425Z,3.35
2023-03-13T02:32:26.257Z,4.88
2023-03-13T02:33:31.304Z,8.27
2023-03-13T02:34:34.738Z,8.88
2023-03-13T02:35:38.060Z,7.28
2023-03-13T02:36:39.931Z,7.20
2023-03-13T02:37:43.425Z,7.03
2023-03-13T02:38:51.889Z,9.18
2023-03-13T02:39:55.018Z,4.95
2023-03-13T02:40:58.194Z,10.30
2023-03-13T02:42:03.613Z,8.43
2023-03-13T02:43:08.778Z,5.88
2023-03-13T02:44:11.438Z,5.80
2023-03-13T02:45:14.855Z,9.90
2023-03-13T02:46:19.177Z,11.00
2023-03-13T02:47:22.004Z,3.72
2023-03-13T02:48:32.675Z,8.27
2023-03-13T02:49:34.429Z,8.63
2023-03-13T02:50:38.317Z,6.13
2023-03-13T02:51:42.476Z,8.15
2023-03-13T02:52:47.049Z,4.50
2023-03-13T02:53:49.911Z,8.10
2023-03-13T02:54:54.341Z,8.23
2023-03-13T02:55:56.035Z,9.75
2023-03-13T02:57:00.157Z,6.20
2023-03-13T02:58:03.234Z,5.57
2023-03-13T02:59:06.880Z,7.78
2023-03-13T03:00:12.699Z,5.15
2023-03-13T03:01:15.493Z,6.50
2023-03-13T03:02:17.378Z,4.05
2023-03-13T03:03:20.103Z,9.60
2023-03-13T03:04:22.901Z,3.90
2023-03-13T03:05:25.926Z,7.47
2023-03-13T03:06:27.593Z,7.38
2023-03-13T03:07:30.295Z,10.43
2023-03-13T03:08:32.134Z,7.22
2023-03-13T03:09:34.789Z,7.82
2023-03-13T03:10:36.897Z,7.03
2023-03-13T03:11:39.832Z,3.55
2023-03-13T03:12:41.713Z,10.85
2023-03-13T03:13:45.867Z,7.43
2023-03-13T03:14:47.668Z,5.40
2023-03-13T03:15:50.347Z,6.38
2023-03-13T03:16:52.145Z,6.07
2023-03-13T03:17:54.799Z,7.95
2023-03-13T03:18:56.723Z,6.05
2023-03-13T03:19:59.390Z,11.02
2023-03-13T03:21:01.106Z,10.43
2023-03-13T03:22:03.812Z,5.40
2023-03-13T03:23:05.498Z,5.32
2023-03-13T03:24:09.211Z,6.60
2023-03-13T03:25:11.027Z,2.70
2023-03-13T03:26:13.722Z,4.10
2023-03-13T03:27:15.421Z,7.90
2023-03-13T03:28:18.097Z,9.20
2023-03-13T03:29:21.189Z,9.18
2023-03-13T03:30:23.964Z,5.75
2023-03-13T03:31:25.744Z,11.48
2023-03-13T03:32:28.518Z,2.58
2023-03-13T03:33:30.246Z,7.00
2023-03-13T03:34:33.345Z,6.72
2023-03-13T03:35:38.484Z,3.90
2023-03-13T03:36:42.424Z,5.55
2023-03-13T03:37:44.214Z,6.72
2023-03-13T03:38:46.998Z,6.57
2023-03-13T03:39:48.750Z,5.72
2023-03-13T03:40:51.530Z,11.07
2023-03-13T03:41:53.216Z,5.30
2023-03-13T03:42:55.860Z,8.68
2023-03-13T03:43:57.550Z,8.13
2023-03-13T03:45:01.847Z,4.97
2023-03-13T03:46:04.024Z,5.93
2023-03-13T03:47:07.069Z,6.45
2023-03-13T03:48:08.821Z,3.95
2023-03-13T03:49:11.533Z,10.88
2023-03-13T03:50:13.352Z,7.68
2023-03-13T03:51:16.087Z,6.70
2023-03-13T03:52:18.082Z,3.20
2023-03-13T03:53:20.836Z,6.30
2023-03-13T03:54:22.578Z,7.68
2023-03-13T03:55:25.296Z,3.25
2023-03-13T03:56:26.989Z,6.00
2023-03-13T03:57:29.843Z,3.92
2023-03-13T03:58:31.551Z,6.40
2023-03-13T03:59:34.178Z,13.18
2023-03-13T04:00:37.240Z,4.28
2023-03-13T04:01:40.005Z,11.20
2023-03-13T04:02:42.378Z,6.30
2023-03-13T04:03:45.125Z,7.03
2023-03-13T04:04:46.878Z,4.80
2023-03-13T04:05:49.571Z,6.65
2023-03-13T04:06:51.260Z,6.22
2023-03-13T04:07:54.033Z,6.65
2023-03-13T04:08:56.135Z,7.15
2023-03-13T04:09:58.923Z,7.00
2023-03-13T04:11:01.615Z,6.97
2023-03-13T04:12:04.556Z,16.52
2023-03-13T04:13:06.243Z,6.75
2023-03-13T04:14:09.146Z,14.23
2023-03-13T04:15:11.481Z,4.30
2023-03-13T04:16:15.529Z,6.15
2023-03-13T04:17:17.299Z,3.60
2023-03-13T04:18:20.050Z,4.07
2023-03-13T04:19:21.865Z,6.30
2023-03-13T04:20:24.782Z,5.00
2023-03-13T04:21:26.518Z,3.80
2023-03-13T04:22:29.247Z,8.50
2023-03-13T04:23:31.007Z,10.32
2023-03-13T04:24:33.813Z,2.65
2023-03-13T04:25:36.099Z,6.00
2023-03-13T04:26:38.743Z,6.15
2023-03-13T04:27:40.512Z,3.35
2023-03-13T04:28:43.389Z,6.28
2023-03-13T04:29:45.398Z,11.50
2023-03-13T04:30:48.143Z,5.15
2023-03-13T04:31:51.305Z,6.82
2023-03-13T04:32:54.019Z,6.28
2023-03-13T04:33:55.844Z,3.67
2023-03-13T04:34:58.851Z,3.92
2023-03-13T04:36:00.610Z,6.43
2023-03-13T04:37:03.343Z,9.02
2023-03-13T04:38:05.168Z,4.13
2023-03-13T04:39:07.879Z,3.63
2023-03-13T04:40:12.624Z,3.15
2023-03-13T04:41:14.325Z,5.47
2023-03-13T04:42:17.053Z,3.65
2023-03-13T04:43:18.797Z,4.50
2023-03-13T04:44:22.072Z,3.60
2023-03-13T04:45:23.789Z,2.45
2023-03-13T04:46:26.503Z,4.88
2023-03-13T04:47:29.672Z,8.13
2023-03-13T04:48:32.340Z,5.75
2023-03-13T04:49:34.930Z,3.33
2023-03-13T04:50:37.588Z,7.22
2023-03-13T04:51:39.356Z,4.95
2023-03-13T04:52:41.981Z,4.80
2023-03-13T04:53:43.942Z,3.53
2023-03-13T04:54:46.599Z,2.47
2023-03-13T04:55:48.684Z,3.90
2023-03-13T04:56:51.406Z,3.75
2023-03-13T04:57:53.113Z,3.53
2023-03-13T04:58:55.952Z,4.72
2023-03-13T04:59:57.610Z,4.53
2023-03-13T05:01:00.353Z,5.55
2023-03-13T05:02:02.063Z,3.03
2023-03-13T05:03:06.095Z,4.72
2023-03-13T05:04:08.131Z,3.60
2023-03-13T05:05:10.892Z,3.03
2023-03-13T05:06:13.059Z,2.45
2023-03-13T05:07:15.771Z,2.53
2023-03-13T05:08:17.511Z,3.00
2023-03-13T05:09:20.241Z,4.35
2023-03-13T05:10:21.999Z,3.38
2023-03-13T05:11:25.016Z,4.35
2023-03-13T05:12:26.720Z,5.65
2023-03-13T05:13:29.409Z,3.88
2023-03-13T05:14:31.161Z,4.05
2023-03-13T05:15:33.963Z,2.95
2023-03-13T05:16:35.712Z,4.20
2023-03-13T05:17:38.440Z,5.00
2023-03-13T05:18:41.522Z,4.68
2023-03-13T05:19:44.358Z,2.40
2023-03-13T05:20:46.174Z,1.85
2023-03-13T05:21:48.888Z,0.95
2023-03-13T05:22:50.644Z,4.78
2023-03-13T05:23:53.365Z,2.53
2023-03-13T05:24:55.115Z,2.42
2023-03-13T05:25:57.796Z,1.45
2023-03-13T05:26:59.469Z,4.32
2023-03-13T05:28:02.173Z,4.68
2023-03-13T05:29:03.929Z,2.10
2023-03-13T05:30:07.676Z,3.63
2023-03-13T05:31:09.565Z,1.23
2023-03-13T05:32:12.238Z,4.22
2023-03-13T05:33:14.024Z,4.38
2023-03-13T05:34:18.070Z,3.80
2023-03-13T05:35:19.742Z,1.23
2023-03-13T05:36:22.613Z,1.80
2023-03-13T05:37:24.295Z,1.17
2023-03-13T05:38:27.182Z,7.07
2023-03-13T05:39:28.889Z,4.43
2023-03-13T05:40:31.575Z,1.38
2023-03-13T05:41:33.373Z,6.22
2023-03-13T05:42:36.013Z,2.40
2023-03-13T05:43:37.821Z,4.75
2023-03-13T05:44:40.474Z,3.45
2023-03-13T05:45:42.130Z,3.67
2023-03-13T05:46:44.879Z,4.82
2023-03-13T05:47:46.598Z,2.47
2023-03-13T05:48:49.392Z,2.72
2023-03-13T05:49:52.476Z,5.38
2023-03-13T05:50:55.200Z,5.53
2023-03-13T05:51:56.877Z,1.75
2023-03-13T05:52:59.534Z,4.38
2023-03-13T05:54:01.288Z,2.20
2023-03-13T05:55:04.293Z,2.30
2023-03-13T05:56:06.548Z,4.53
2023-03-13T05:57:09.338Z,3.60
2023-03-13T05:58:10.989Z,4.32
2023-03-13T05:59:13.678Z,4.15
2023-03-13T06:00:16.971Z,4.20
2023-03-13T06:01:19.798Z,5.35
2023-03-13T06:02:21.474Z,2.40
2023-03-13T06:03:24.149Z,5.55
2023-03-13T06:04:25.985Z,5.70
2023-03-13T06:05:30.198Z,4.07
2023-03-13T06:06:31.888Z,2.03
2023-03-13T06:07:34.606Z,1.98
2023-03-13T06:08:36.372Z,2.50
2023-03-13T06:09:40.975Z,5.10
2023-03-13T06:10:42.706Z,4.68
2023-03-13T06:11:45.375Z,1.33
2023-03-13T06:12:52.641Z,1.00
2023-03-13T06:13:55.425Z,2.40
2023-03-13T06:14:58.125Z,2.08
2023-03-13T06:16:00.098Z,1.50
2023-03-13T06:17:02.799Z,2.13
2023-03-13T06:18:04.543Z,1.58
2023-03-13T06:19:07.224Z,3.35
2023-03-13T06:20:11.654Z,1.77
2023-03-13T06:21:15.850Z,1.77
2023-03-13T06:22:17.819Z,2.10
2023-03-13T06:23:20.615Z,4.03
2023-03-13T06:24:22.530Z,1.90
2023-03-13T06:25:25.470Z,2.72
2023-03-13T06:26:27.196Z,3.25
2023-03-13T06:27:29.899Z,4.03
2023-03-13T06:28:31.702Z,2.08
2023-03-13T06:29:34.381Z,2.33
2023-03-13T06:30:36.719Z,3.67
2023-03-13T06:31:39.567Z,1.33
2023-03-13T06:32:41.589Z,2.45
2023-03-13T06:33:44.469Z,3.10
2023-03-13T06:34:46.149Z,4.32
2023-03-13T06:35:56.141Z,2.08
2023-03-13T06:37:00.529Z,4.53
2023-03-13T06:38:03.275Z,2.80
2023-03-13T06:39:05.219Z,1.52
2023-03-13T06:40:08.747Z,2.00
2023-03-13T06:41:10.458Z,1.15
2023-03-13T06:42:13.094Z,3.50
2023-03-13T06:43:14.820Z,2.72
2023-03-13T06:44:17.539Z,2.10
2023-03-13T06:45:20.200Z,1.63
2023-03-13T06:46:23.057Z,0.88
2023-03-13T06:47:25.855Z,4.13
2023-03-13T06:48:27.559Z,4.15
2023-03-13T06:49:30.247Z,2.17
2023-03-13T06:50:32.014Z,1.38
2023-03-13T06:51:35.169Z,2.35
2023-03-13T06:52:43.993Z,2.22
2023-03-13T06:53:47.378Z,2.53
2023-03-13T06:54:49.227Z,2.70
2023-03-13T06:55:52.064Z,2.00
2023-03-13T06:56:53.795Z,1.73
2023-03-13T06:57:56.558Z,7.13
2023-03-13T06:58:59.969Z,2.10
2023-03-13T07:00:04.870Z,1.45
2023-03-13T07:01:07.585Z,2.15
2023-03-13T07:02:10.759Z,2.35
2023-03-13T07:03:12.473Z,3.35
2023-03-13T07:04:16.335Z,2.17
2023-03-13T07:05:18.165Z,3.55
2023-03-13T07:06:20.913Z,2.13
2023-03-13T07:07:31.714Z,2.67
2023-03-13T07:08:37.622Z,1.40
2023-03-13T07:09:40.346Z,1.65
2023-03-13T07:10:42.946Z,1.42
2023-03-13T07:11:45.605Z,2.33
2023-03-13T07:12:47.327Z,4.95
2023-03-13T07:13:50.020Z,0.88
2023-03-13T07:14:51.871Z,1.33
2023-03-13T07:15:55.684Z,2.20
2023-03-13T07:17:00.196Z,2.42
2023-03-13T07:18:01.922Z,2.08
2023-03-13T07:19:04.645Z,2.08
2023-03-13T07:20:09.717Z,1.65
2023-03-13T07:21:12.519Z,3.20
2023-03-13T07:22:15.185Z,2.25
2023-03-13T07:23:16.846Z,2.63
2023-03-13T07:24:21.097Z,2.20
2023-03-13T07:25:22.956Z,2.22
2023-03-13T07:26:25.628Z,1.30
2023-03-13T07:27:27.406Z,2.72
2023-03-13T07:28:31.578Z,2.45
2023-03-13T07:29:34.343Z,1.08
2023-03-13T07:30:36.030Z,3.15
2023-03-13T07:31:39.370Z,2.30
2023-03-13T07:32:41.135Z,7.97
2023-03-13T07:33:44.815Z,4.93
2023-03-13T07:34:46.574Z,2.75
2023-03-13T07:35:50.415Z,4.18
2023-03-13T07:36:52.250Z,3.92
2023-03-13T07:37:55.023Z,3.40
2023-03-13T07:38:57.731Z,3.53
2023-03-13T07:40:00.790Z,5.80
2023-03-13T07:41:03.742Z,4.50
2023-03-13T07:42:05.701Z,5.75
2023-03-13T07:43:08.384Z,1.45
2023-03-13T07:44:11.028Z,1.23
2023-03-13T07:45:13.387Z,0.80
2023-03-13T07:46:18.581Z,1.88
2023-03-13T07:47:21.372Z,0.65
2023-03-13T07:48:25.952Z,0.80
2023-03-13T07:49:28.757Z,2.33
2023-03-13T07:50:30.571Z,1.38
2023-03-13T07:51:43.003Z,1.33
2023-03-13T07:52:46.487Z,2.85
2023-03-13T07:53:49.406Z,2.50
2023-03-13T07:54:51.114Z,0.93
2023-03-13T07:55:56.639Z,1.00
2023-03-13T07:56:59.317Z,1.08
2023-03-13T07:58:01.002Z,2.28
2023-03-13T07:59:03.709Z,0.38
2023-03-13T08:00:10.330Z,1.90
2023-03-13T08:01:16.126Z,1.23
2023-03-13T08:02:17.843Z,0.77
2023-03-13T08:03:20.765Z,3.85
2023-03-13T08:04:23.608Z,1.90
2023-03-13T08:05:25.329Z,1.08
2023-03-13T08:06:28.995Z,0.43
2023-03-13T08:07:30.665Z,1.30
2023-03-13T08:08:33.736Z,0.90
2023-03-13T08:09:35.508Z,2.50
2023-03-13T08:10:38.287Z,0.50
2023-03-13T08:11:44.376Z,0.70
2023-03-13T08:12:46.611Z,1.08
2023-03-13T08:13:50.564Z,0.60
2023-03-13T08:14:52.274Z,1.52
2023-03-13T08:16:03.309Z,1.65
2023-03-13T08:17:06.138Z,2.50
2023-03-13T08:18:07.914Z,1.13
2023-03-13T08:19:11.449Z,1.40
2023-03-13T08:20:13.544Z,1.67
2023-03-13T08:21:17.352Z,0.80
2023-03-13T08:22:19.102Z,2.63
2023-03-13T08:23:21.818Z,3.67
2023-03-13T08:24:24.540Z,1.27
2023-03-13T08:25:26.331Z,2.03
2023-03-13T08:26:30.650Z,0.55
2023-03-13T08:27:33.663Z,1.92
2023-03-13T08:28:36.914Z,2.70
2023-03-13T08:29:38.608Z,1.23
2023-03-13T08:30:41.334Z,2.28
2023-03-13T08:31:46.067Z,1.15
2023-03-13T08:32:47.755Z,2.20
2023-03-13T08:33:50.564Z,1.83
2023-03-13T08:34:52.275Z,3.50
2023-03-13T08:35:55.100Z,0.60
2023-03-13T08:36:58.071Z,1.50
2023-03-13T08:38:00.722Z,1.60
2023-03-13T08:39:06.200Z,1.95
2023-03-13T08:40:11.321Z,0.65
2023-03-13T08:41:14.779Z,1.20
2023-03-13T08:42:17.462Z,0.80
2023-03-13T08:43:21.462Z,1.08
2023-03-13T08:44:23.221Z,0.85
2023-03-13T08:45:25.952Z,1.23
2023-03-13T08:46:30.510Z,1.98
2023-03-13T08:47:33.278Z,2.28
2023-03-13T08:48:35.093Z,3.30
2023-03-13T08:49:37.802Z,0.95
2023-03-13T08:50:39.487Z,1.77
2023-03-13T08:51:42.284Z,1.92
2023-03-13T08:52:45.341Z,5.65
2023-03-13T08:53:47.209Z,1.83
2023-03-13T08:54:49.980Z,0.77
2023-03-13T08:55:52.916Z,3.83
2023-03-13T08:56:55.542Z,1.92
2023-03-13T08:57:58.497Z,3.50
2023-03-13T08:59:03.447Z,3.05
2023-03-13T09:00:07.962Z,0.93
2023-03-13T09:01:10.986Z,2.65
2023-03-13T09:02:19.921Z,1.73
2023-03-13T09:03:22.708Z,1.67
2023-03-13T09:04:24.728Z,1.65
2023-03-13T09:05:27.491Z,2.42
2023-03-13T09:06:29.313Z,2.72
2023-03-13T09:07:32.022Z,1.63
2023-03-13T09:08:34.283Z,0.70
2023-03-13T09:09:36.965Z,3.35
2023-03-13T09:10:39.669Z,0.70
2023-03-13T09:11:42.496Z,2.92
2023-03-13T09:12:46.987Z,0.82
2023-03-13T09:13:51.162Z,3.35
2023-03-13T09:14:54.211Z,0.90
2023-03-13T09:15:57.371Z,0.95
2023-03-13T09:17:00.249Z,1.52
2023-03-13T09:18:01.978Z,2.20
2023-03-13T09:19:04.672Z,1.45
2023-03-13T09:20:08.713Z,0.68
2023-03-13T09:21:13.784Z,0.70
2023-03-13T09:22:15.442Z,1.90
2023-03-13T09:23:18.231Z,1.75
2023-03-13T09:24:21.145Z,2.70
2023-03-13T09:25:23.899Z,3.53
2023-03-13T09:26:27.537Z,4.30
2023-03-13T09:27:30.216Z,0.93
2023-03-13T09:28:32.342Z,0.88
2023-03-13T09:29:38.090Z,1.38
2023-03-13T09:30:41.279Z,2.90
2023-03-13T09:31:44.080Z,1.50
2023-03-13T09:32:46.808Z,3.55
2023-03-13T09:33:49.782Z,1.70
2023-03-13T09:34:52.434Z,3.45
2023-03-13T09:35:54.198Z,1.40
2023-03-13T09:36:56.992Z,4.00
2023-03-13T09:37:58.697Z,0.50
2023-03-13T09:39:01.549Z,1.77
2023-03-13T09:40:04.812Z,1.25
2023-03-13T09:41:20.686Z,0.90
2023-03-13T09:42:25.768Z,1.05
2023-03-13T09:43:37.438Z,0.90
2023-03-13T09:44:42.276Z,2.70
2023-03-13T09:45:47.032Z,2.20
2023-03-13T09:46:57.975Z,1.48
2023-03-13T09:48:04.126Z,0.90
2023-03-13T09:49:12.855Z,1.33
2023-03-13T09:50:18.191Z,1.48
2023-03-13T09:51:22.069Z,1.67
2023-03-13T09:52:26.314Z,1.83
2023-03-13T09:53:38.921Z,2.53
2023-03-13T09:54:45.327Z,0.93
2023-03-13T09:55:47.413Z,1.63
2023-03-13T09:56:54.383Z,1.50
2023-03-13T09:57:58.158Z,1.92
2023-03-13T09:59:05.787Z,1.88
2023-03-13T10:00:12.837Z,1.88
2023-03-13T10:01:18.091Z,0.45
2023-03-13T10:02:26.542Z,11.13
2023-03-13T10:03:31.014Z,0.63
2023-03-13T10:04:36.141Z,2.65
2023-03-13T10:05:39.300Z,0.93
2023-03-13T10:06:44.149Z,0.60
2023-03-13T10:07:46.948Z,1.88
2023-03-13T10:08:49.724Z,1.00
2023-03-13T10:09:53.633Z,2.28
2023-03-13T10:11:00.189Z,0.93
2023-03-13T10:12:07.383Z,4.47
2023-03-13T10:13:16.807Z,0.75
2023-03-13T10:14:23.234Z,1.38
2023-03-13T10:15:34.970Z,0.88
2023-03-13T10:16:43.532Z,0.80
2023-03-13T10:17:46.259Z,1.65
2023-03-13T10:18:50.623Z,3.08
2023-03-13T10:19:57.354Z,3.38
2023-03-13T10:21:01.734Z,3.80
2023-03-13T10:22:19.034Z,2.58
2023-03-13T10:23:27.412Z,1.80
2023-03-13T10:24:34.312Z,1.65
2023-03-13T10:25:38.546Z,6.05
2023-03-13T10:26:40.303Z,1.40
2023-03-13T10:27:46.609Z,1.45
2023-03-13T10:28:49.384Z,1.30
2023-03-13T10:29:52.075Z,1.00
2023-03-13T10:31:03.421Z,1.77
2023-03-13T10:32:09.054Z,2.35
2023-03-13T10:33:21.598Z,2.00
2023-03-13T10:34:23.389Z,1.40
2023-03-13T10:35:32.426Z,0.77
2023-03-13T10:36:41.562Z,1.60
2023-03-13T10:37:44.990Z,2.95
2023-03-13T10:38:50.950Z,1.75
2023-03-13T10:39:53.168Z,2.17
2023-03-13T10:40:58.506Z,2.38
2023-03-13T10:42:11.128Z,1.92
2023-03-13T10:43:15.329Z,1.25
2023-03-13T10:44:19.743Z,0.82
2023-03-13T10:45:25.116Z,0.85
2023-03-13T10:46:30.071Z,2.15
2023-03-13T10:47:36.360Z,2.75
2023-03-13T10:48:38.104Z,2.13
2023-03-13T10:49:49.651Z,2.15
2023-03-13T10:50:54.037Z,1.98
2023-03-13T10:51:57.548Z,1.92
2023-03-13T10:53:09.510Z,4.88
2023-03-13T10:54:16.928Z,1.30
2023-03-13T10:55:21.793Z,3.25
2023-03-13T10:56:26.432Z,2.72
2023-03-13T10:57:31.234Z,3.53
2023-03-13T10:58:35.872Z,2.30
2023-03-13T10:59:40.648Z,4.00
2023-03-13T11:00:45.076Z,2.47
2023-03-13T11:01:49.121Z,4.03
2023-03-13T11:02:54.687Z,5.30
2023-03-13T11:04:00.325Z,2.47
2023-03-13T11:05:03.775Z,1.55
2023-03-13T11:06:05.736Z,2.55
2023-03-13T11:07:16.294Z,2.58
2023-03-13T11:08:24.019Z,3.38
2023-03-13T11:09:27.693Z,2.45
2023-03-13T11:10:30.270Z,2.35
2023-03-13T11:11:44.803Z,1.80
2023-03-13T11:12:49.352Z,1.73
2023-03-13T11:13:53.923Z,1.20
2023-03-13T11:15:00.430Z,2.28
2023-03-13T11:16:10.073Z,2.35
2023-03-13T11:17:19.995Z,3.10
2023-03-13T11:18:29.266Z,2.28
2023-03-13T11:19:48.466Z,1.85
2023-03-13T11:20:51.307Z,2.47
2023-03-13T11:22:02.081Z,1.88
2023-03-13T11:23:16.196Z,5.65
2023-03-13T11:24:24.649Z,2.28
2023-03-13T11:25:33.159Z,1.42
2023-03-13T11:26:37.597Z,6.32
2023-03-13T11:27:45.509Z,3.03
2023-03-13T11:28:51.007Z,1.73
2023-03-13T11:30:02.869Z,3.65
2023-03-13T11:31:11.309Z,8.23
2023-03-13T11:32:22.877Z,1.00
2023-03-13T11:33:31.067Z,2.60
2023-03-13T11:34:38.263Z,2.92
2023-03-13T11:35:45.901Z,0.95
2023-03-13T11:36:53.781Z,1.38
2023-03-13T11:37:56.780Z,2.45
2023-03-13T11:39:06.834Z,1.90
2023-03-13T11:40:20.422Z,3.30
2023-03-13T11:41:33.284Z,2.90
2023-03-13T11:43:21.690Z,5.68
2023-03-13T11:44:32.116Z,7.82
2023-03-13T11:46:02.508Z,2.75
2023-03-13T11:47:33.072Z,4.32
2023-03-13T11:49:10.822Z,1.38
2023-03-13T11:50:20.846Z,3.25
2023-03-13T11:51:27.408Z,5.05
2023-03-13T11:52:41.987Z,7.10
2023-03-13T11:54:00.640Z,1.85
2023-03-13T11:55:19.320Z,2.95
2023-03-13T11:56:24.367Z,4.15
2023-03-13T11:57:30.872Z,2.83
2023-03-13T11:58:41.891Z,3.30
2023-03-13T11:59:48.912Z,6.97
2023-03-13T12:00:56.923Z,1.67
2023-03-13T12:02:02.358Z,1.70
2023-03-13T12:03:06.906Z,3.00
2023-03-13T12:04:15.774Z,3.15
2023-03-13T12:05:20.361Z,5.07
2023-03-13T12:06:28.561Z,2.92
2023-03-13T12:07:34.871Z,1.60
2023-03-13T12:08:39.876Z,3.08
2023-03-13T12:09:45.764Z,3.92
2023-03-13T12:10:50.146Z,1.23
2023-03-13T12:11:59.420Z,3.55
2023-03-13T12:13:05.128Z,2.65
2023-03-13T12:14:13.500Z,12.90
2023-03-13T12:15:19.479Z,4.35
2023-03-13T12:16:26.560Z,5.45
2023-03-13T12:17:33.351Z,4.25
2023-03-13T12:18:36.821Z,1.02
2023-03-13T12:19:43.933Z,6.13
2023-03-13T12:20:53.669Z,5.03
2023-03-13T12:21:57.391Z,1.95
2023-03-13T12:23:08.796Z,4.63
2023-03-13T12:24:14.799Z,4.18
2023-03-13T12:25:23.237Z,3.80
2023-03-13T12:26:35.277Z,4.97
2023-03-13T12:27:41.128Z,6.88
2023-03-13T12:28:46.827Z,1.35
2023-03-13T12:29:54.745Z,1.25
2023-03-13T12:31:13.581Z,3.28
2023-03-13T12:32:21.276Z,1.02
2023-03-13T12:33:26.539Z,6.78
2023-03-13T12:34:37.196Z,1.65
2023-03-13T12:35:41.718Z,2.33
2023-03-13T12:36:50.263Z,1.75
2023-03-13T12:37:56.243Z,1.90
2023-03-13T12:39:06.539Z,6.13
2023-03-13T12:40:14.688Z,4.38
2023-03-13T12:41:21.700Z,3.08
2023-03-13T12:42:40.695Z,3.13
2023-03-13T12:43:57.208Z,2.58
2023-03-13T12:45:08.500Z,3.35
2023-03-13T12:46:27.336Z,3.72
2023-03-13T12:47:32.511Z,3.80
2023-03-13T12:49:03.657Z,6.38
2023-03-13T12:50:26.467Z,3.13
2023-03-13T12:51:38.767Z,1.35
2023-03-13T12:53:09.937Z,1.77
2023-03-13T12:54:37.109Z,1.75
2023-03-13T12:55:59.840Z,1.33
2023-03-13T12:57:11.247Z,1.98
2023-03-13T12:58:42.111Z,3.60
2023-03-13T12:59:47.682Z,2.45
2023-03-13T13:00:50.410Z,2.30
2023-03-13T13:01:54.746Z,3.17
2023-03-13T13:03:10.260Z,2.42
2023-03-13T13:04:13.749Z,3.17
2023-03-13T13:05:20.926Z,2.42
2023-03-13T13:06:22.735Z,1.85
2023-03-13T13:07:27.523Z,2.70
2023-03-13T13:08:33.758Z,1.98
2023-03-13T13:09:39.295Z,2.50
2023-03-13T13:10:42.027Z,2.30
2023-03-13T13:11:49.287Z,1.60
2023-03-13T13:13:19.674Z,4.18
2023-03-13T13:15:06.584Z,2.08
2023-03-13T13:16:16.207Z,1.90
2023-03-13T13:17:21.146Z,1.92
2023-03-13T13:18:28.618Z,1.63
2023-03-13T13:19:47.241Z,3.38
2023-03-13T13:20:50.491Z,2.45
2023-03-13T13:22:25.431Z,2.45
2023-03-13T13:23:39.698Z,6.47
2023-03-13T13:24:48.951Z,1.35
2023-03-13T13:25:52.536Z,1.17
2023-03-13T13:26:55.243Z,2.45
2023-03-13T13:27:59.070Z,3.95
2023-03-13T13:29:03.124Z,5.97
2023-03-13T13:30:24.830Z,2.78
2023-03-13T13:31:47.466Z,2.58
2023-03-13T13:32:50.747Z,1.80
2023-03-13T13:33:53.587Z,1.08
2023-03-13T13:34:56.372Z,3.55
2023-03-13T13:36:32.144Z,1.83
2023-03-13T13:37:34.079Z,3.83
2023-03-13T13:38:40.178Z,2.88
2023-03-13T13:39:48.007Z,1.45
2023-03-13T13:41:01.910Z,3.28
2023-03-13T13:42:41.925Z,2.40
2023-03-13T13:43:46.364Z,3.28
2023-03-13T13:44:58.011Z,2.05
2023-03-13T13:46:08.982Z,1.88
2023-03-13T13:47:24.922Z,3.15
2023-03-13T13:48:32.549Z,1.88
2023-03-13T13:49:53.323Z,2.50
2023-03-13T13:51:23.608Z,1.77
2023-03-13T13:52:37.361Z,3.40
2023-03-13T13:53:46.188Z,2.55
2023-03-13T13:54:56.823Z,1.17
2023-03-13T13:55:59.619Z,1.45
2023-03-13T13:57:07.408Z,3.83
2023-03-13T13:58:14.089Z,2.55
2023-03-13T13:59:26.998Z,1.30
2023-03-13T14:00:35.344Z,5.80
2023-03-13T14:01:38.358Z,2.10
2023-03-13T14:02:49.585Z,2.90
2023-03-13T14:03:53.053Z,1.80
2023-03-13T14:05:08.085Z,1.52
2023-03-13T14:06:18.309Z,1.27
2023-03-13T14:07:25.159Z,0.98
2023-03-13T14:08:30.814Z,2.15
2023-03-13T14:09:47.784Z,3.35
2023-03-13T14:10:53.686Z,1.33
2023-03-13T14:11:56.782Z,1.40
2023-03-13T14:13:00.606Z,1.27
2023-03-13T14:14:09.377Z,1.67
2023-03-13T14:15:17.752Z,1.17
2023-03-13T14:16:24.700Z,1.10
2023-03-13T14:17:26.683Z,1.88
2023-03-13T14:18:30.734Z,1.58
2023-03-13T14:19:36.924Z,3.33
2023-03-13T14:20:40.637Z,3.00
2023-03-13T14:21:42.363Z,0.80
2023-03-13T14:22:48.460Z,1.73